Time;durP1;ratioP1;P1;durP2;ratioP2;P2;SDS_P1;SDS_P2;PMS_P1;PMS_P2;Temp;Humidity;BMP_temperature;BMP_pressure;BME280_temperature;BME280_humidity;BME280_pressure;Samples;Min_cycle;Max_cycle;Signal;HPM_P1;HPM_P2
2023/02/19 00:01:30;;;;;;;5.13;4.63;;;9.80;99.90;;;;;;5000735;28;20166;-88
2023/02/19 00:04:07;;;;;;;4.33;4.03;;;9.80;99.90;;;;;;5001710;28;20206;-86
2023/02/19 00:06:34;;;;;;;4.47;4.07;;;9.80;99.90;;;;;;5007306;28;20161;-87
2023/02/19 00:09:00;;;;;;;3.97;3.57;;;9.80;99.90;;;;;;5010584;28;20179;-86
2023/02/19 00:11:29;;;;;;;4.07;3.60;;;9.70;99.90;;;;;;5009900;28;20256;-87
2023/02/19 00:13:57;;;;;;;4.80;3.83;;;9.80;99.90;;;;;;5009194;28;20209;-88
2023/02/19 00:16:28;;;;;;;4.00;3.70;;;9.80;99.90;;;;;;4999105;28;20181;-88
2023/02/19 00:18:56;;;;;;;4.00;3.50;;;9.80;99.90;;;;;;4998861;28;20166;-88
2023/02/19 00:21:22;;;;;;;3.90;3.50;;;9.80;99.90;;;;;;4989922;28;20253;-87
2023/02/19 00:23:53;;;;;;;3.83;3.53;;;9.80;99.90;;;;;;5016884;28;20239;-89
2023/02/19 00:26:19;;;;;;;3.87;3.57;;;9.80;99.90;;;;;;5017056;28;20180;-87
2023/02/19 00:28:46;;;;;;;3.80;3.50;;;9.80;99.90;;;;;;5013098;28;20205;-87
2023/02/19 00:31:23;;;;;;;3.80;3.50;;;9.80;99.90;;;;;;4988856;28;20197;-87
2023/02/19 00:33:51;;;;;;;4.30;3.97;;;9.80;99.90;;;;;;5018837;28;20265;-88
2023/02/19 00:36:17;;;;;;;3.60;3.30;;;9.80;99.90;;;;;;5019958;28;20201;-88
2023/02/19 00:38:43;;;;;;;3.80;3.50;;;9.70;99.90;;;;;;5020936;28;20554;-88
2023/02/19 00:41:20;;;;;;;3.73;3.43;;;9.80;99.90;;;;;;5020463;28;20220;-88
2023/02/19 00:43:57;;;;;;;3.90;3.60;;;9.80;99.90;;;;;;5019202;28;20255;-88
2023/02/19 00:46:31;;;;;;;3.97;3.67;;;9.80;99.90;;;;;;5012566;28;20186;-89
2023/02/19 00:48:58;;;;;;;3.87;3.57;;;9.70;99.90;;;;;;4997903;28;20284;-87
2023/02/19 00:51:26;;;;;;;3.60;3.30;;;9.80;99.90;;;;;;4997985;28;20707;-87
2023/02/19 00:53:52;;;;;;;3.53;3.23;;;9.80;99.90;;;;;;5001052;28;20236;-87
2023/02/19 00:56:19;;;;;;;3.90;3.50;;;9.80;99.90;;;;;;5001407;28;20170;-88
2023/02/19 00:58:45;;;;;;;3.70;3.40;;;9.80;99.90;;;;;;5000653;28;20182;-87
2023/02/19 01:01:11;;;;;;;3.90;3.60;;;9.80;99.90;;;;;;5000136;28;20304;-88
2023/02/19 01:03:38;;;;;;;3.63;3.33;;;9.90;99.90;;;;;;5012952;28;20275;-88
2023/02/19 01:06:06;;;;;;;3.40;3.10;;;9.80;99.90;;;;;;5019588;28;20174;-88
2023/02/19 01:08:32;;;;;;;4.00;3.70;;;9.70;99.90;;;;;;5003168;28;20189;-88
2023/02/19 01:10:59;;;;;;;3.50;3.20;;;9.80;99.90;;;;;;5021386;28;20212;-88
2023/02/19 01:13:27;;;;;;;4.10;3.80;;;9.70;99.90;;;;;;5002413;28;20193;-87
2023/02/19 01:15:53;;;;;;;3.83;3.50;;;9.70;99.90;;;;;;5018049;28;20438;-88
2023/02/19 01:18:19;;;;;;;4.00;3.70;;;9.60;99.90;;;;;;5017459;28;20185;-87
2023/02/19 01:20:45;;;;;;;3.27;2.97;;;9.70;99.90;;;;;;5014703;28;20292;-88
2023/02/19 01:23:12;;;;;;;3.27;2.97;;;9.80;99.90;;;;;;5000105;28;20178;-87
2023/02/19 01:25:39;;;;;;;3.17;2.90;;;9.80;99.90;;;;;;5017523;28;20193;-87
2023/02/19 01:28:05;;;;;;;3.33;3.03;;;9.70;99.90;;;;;;5003560;28;20197;-86
2023/02/19 01:30:34;;;;;;;3.27;2.87;;;9.70;99.90;;;;;;4982325;28;20178;-87
2023/02/19 01:33:00;;;;;;;2.90;2.70;;;9.80;99.90;;;;;;5014641;28;20240;-87
2023/02/19 01:35:25;;;;;;;3.10;2.90;;;9.80;99.90;;;;;;5017988;28;20244;-86
2023/02/19 01:37:51;;;;;;;2.70;2.50;;;9.80;99.90;;;;;;5000666;28;20660;-89
2023/02/19 01:40:17;;;;;;;2.70;2.50;;;9.90;99.90;;;;;;5009022;28;20201;-88
2023/02/19 01:42:43;;;;;;;2.57;2.37;;;9.80;99.90;;;;;;5020266;28;20194;-87
2023/02/19 01:45:21;;;;;;;2.83;2.60;;;9.90;99.90;;;;;;5002486;28;20221;-88
2023/02/19 01:47:56;;;;;;;2.57;2.37;;;9.80;99.90;;;;;;5003361;28;20173;-87
2023/02/19 01:50:23;;;;;;;2.60;2.40;;;9.90;99.90;;;;;;5021050;28;20180;-88
2023/02/19 01:52:48;;;;;;;2.63;2.43;;;9.90;99.90;;;;;;5020652;28;20197;-86
2023/02/19 01:55:14;;;;;;;2.90;2.70;;;9.90;99.90;;;;;;5018646;28;20267;-88
2023/02/19 01:57:45;;;;;;;2.60;2.40;;;9.90;99.90;;;;;;5006127;28;20310;-87
2023/02/19 02:00:13;;;;;;;2.20;2.10;;;9.90;99.90;;;;;;5004440;28;20198;-88
2023/02/19 02:02:41;;;;;;;2.60;2.40;;;9.90;99.90;;;;;;5003936;28;20206;-88
2023/02/19 02:05:12;;;;;;;2.53;2.33;;;9.90;99.90;;;;;;5003113;28;20699;-88
2023/02/19 02:10:22;;;;;;;2.23;2.13;;;9.80;99.90;;;;;;5006204;28;20186;-88
2023/02/19 02:12:49;;;;;;;2.40;2.30;;;9.80;99.90;;;;;;5004595;28;20189;-87
2023/02/19 02:15:16;;;;;;;2.40;2.20;;;9.90;99.90;;;;;;5002246;28;20225;-88
2023/02/19 02:17:48;;;;;;;2.00;1.90;;;9.80;99.90;;;;;;5001339;28;20852;-87
2023/02/19 02:20:25;;;;;;;4.43;2.03;;;9.80;99.90;;;;;;4985149;28;20791;-88
2023/02/19 02:23:18;;;;;;;2.33;2.10;;;9.80;99.90;;;;;;5013289;28;20289;-87
2023/02/19 02:25:58;;;;;;;1.90;1.80;;;9.80;99.90;;;;;;4973936;28;20225;-89
2023/02/19 02:28:39;;;;;;;2.20;2.10;;;9.80;99.90;;;;;;5022360;28;20174;-87
2023/02/19 02:31:10;;;;;;;2.00;1.90;;;9.80;99.90;;;;;;5022530;28;20216;-87
2023/02/19 02:33:43;;;;;;;2.10;2.00;;;9.80;99.90;;;;;;5005510;28;20181;-87
2023/02/19 02:36:19;;;;;;;1.90;1.80;;;9.80;99.90;;;;;;5002862;28;20182;-87
2023/02/19 02:38:47;;;;;;;1.93;1.83;;;9.80;99.90;;;;;;5004546;28;20197;-88
2023/02/19 02:41:14;;;;;;;2.00;1.90;;;9.70;99.90;;;;;;5004713;28;20213;-87
2023/02/19 02:43:40;;;;;;;2.10;2.00;;;9.70;99.90;;;;;;5005371;28;20185;-87
2023/02/19 02:46:05;;;;;;;2.20;2.10;;;9.60;99.90;;;;;;5004101;28;20171;-87
2023/02/19 02:48:31;;;;;;;2.20;2.00;;;9.60;99.90;;;;;;5002871;28;20190;-88
2023/02/19 02:51:11;;;;;;;2.20;2.00;;;9.60;99.90;;;;;;5002813;28;20210;-86
2023/02/19 02:56:39;;;;;;;2.40;2.20;;;9.60;99.90;;;;;;5011078;28;20877;-88
2023/02/19 02:59:07;;;;;;;1.87;1.77;;;9.60;99.90;;;;;;5022611;28;20209;-87
2023/02/19 03:07:41;;;;;;;1.97;1.87;;;9.40;99.90;;;;;;5021379;28;20277;-87
2023/02/19 03:10:11;;;;;;;1.90;1.80;;;9.40;99.90;;;;;;5014470;28;20177;-87
2023/02/19 03:21:02;;;;;;;1.90;1.80;;;9.40;99.90;;;;;;5037819;28;20213;-89
2023/02/19 03:26:18;;;;;;;2.17;1.97;;;9.40;99.90;;;;;;4983454;28;20194;-88
2023/02/19 03:31:32;;;;;;;1.70;1.60;;;9.50;99.90;;;;;;5023134;28;20204;-87
2023/02/19 03:34:02;;;;;;;2.00;1.90;;;9.40;99.90;;;;;;5023789;28;20213;-87
2023/02/19 03:36:42;;;;;;;1.60;1.50;;;9.50;99.90;;;;;;5022573;28;20209;-86
2023/02/19 03:39:11;;;;;;;1.70;1.60;;;9.50;99.90;;;;;;5022966;28;20178;-87
2023/02/19 03:41:54;;;;;;;1.93;1.83;;;9.50;99.90;;;;;;5022114;28;20204;-86
2023/02/19 03:44:35;;;;;;;1.80;1.70;;;9.50;99.90;;;;;;5012248;28;20217;-87
2023/02/19 03:47:06;;;;;;;2.03;1.60;;;9.50;99.90;;;;;;5022173;28;20354;-86
2023/02/19 03:49:39;;;;;;;1.80;1.70;;;9.50;99.90;;;;;;5023665;28;20174;-86
2023/02/19 03:52:39;;;;;;;1.80;1.60;;;9.50;99.90;;;;;;5023560;28;20181;-87
2023/02/19 03:55:20;;;;;;;1.43;1.33;;;9.50;99.90;;;;;;5022561;28;20197;-88
2023/02/19 03:57:54;;;;;;;2.70;1.70;;;9.50;99.90;;;;;;5023440;28;20189;-88
2023/02/19 04:00:19;;;;;;;2.10;1.70;;;9.50;99.90;;;;;;5022642;28;20232;-87
2023/02/19 04:03:24;;;;;;;1.70;1.60;;;9.50;99.90;;;;;;5023473;28;20656;-86
2023/02/19 04:05:54;;;;;;;1.93;1.73;;;9.50;99.90;;;;;;5022179;28;20517;-85
2023/02/19 04:08:23;;;;;;;1.70;1.60;;;9.40;99.90;;;;;;5022148;28;20197;-87
2023/02/19 04:10:50;;;;;;;1.80;1.70;;;9.40;99.90;;;;;;5021658;28;20198;-88
2023/02/19 04:13:21;;;;;;;1.60;1.50;;;9.40;99.90;;;;;;5020444;28;20178;-88
2023/02/19 04:15:50;;;;;;;1.90;1.80;;;9.40;99.90;;;;;;5014331;28;20178;-88
2023/02/19 04:18:27;;;;;;;3.37;1.90;;;9.30;99.90;;;;;;5002415;28;20676;-87
2023/02/19 04:20:54;;;;;;;1.80;1.70;;;9.20;99.90;;;;;;5006807;28;20193;-88
2023/02/19 04:23:23;;;;;;;2.13;1.70;;;9.20;99.90;;;;;;5023196;28;20186;-87
2023/02/19 04:25:54;;;;;;;2.00;1.90;;;9.20;99.90;;;;;;5022216;28;20204;-88
2023/02/19 04:28:19;;;;;;;1.83;1.73;;;9.40;99.90;;;;;;5023028;28;20197;-88
2023/02/19 04:30:45;;;;;;;1.70;1.60;;;9.30;99.90;;;;;;5025499;28;20293;-87
2023/02/19 04:33:11;;;;;;;1.73;1.63;;;9.30;99.90;;;;;;5021366;28;20267;-87
2023/02/19 04:35:37;;;;;;;1.60;1.53;;;9.40;99.90;;;;;;5020913;28;20679;-87
2023/02/19 04:38:03;;;;;;;2.13;1.73;;;9.30;99.90;;;;;;5022266;28;20196;-87
2023/02/19 04:40:29;;;;;;;2.00;1.83;;;9.20;99.90;;;;;;5021304;28;20237;-87
2023/02/19 04:42:54;;;;;;;1.67;1.57;;;9.10;99.90;;;;;;5021578;28;20181;-87
2023/02/19 04:45:20;;;;;;;1.90;1.80;;;9.10;99.90;;;;;;5019870;28;20205;-87
2023/02/19 04:47:46;;;;;;;2.73;1.77;;;9.10;99.90;;;;;;5020101;28;20241;-87
2023/02/19 04:50:11;;;;;;;2.00;1.90;;;9.10;99.90;;;;;;5017955;28;20189;-87
2023/02/19 04:52:38;;;;;;;1.53;1.47;;;9.00;99.90;;;;;;5019993;28;20196;-86
2023/02/19 04:55:04;;;;;;;1.87;1.77;;;9.00;99.90;;;;;;5018327;28;20212;-87
2023/02/19 04:57:30;;;;;;;1.80;1.70;;;9.10;99.90;;;;;;5001391;28;20182;-86
2023/02/19 04:59:55;;;;;;;1.90;1.80;;;9.10;99.90;;;;;;5000071;28;20506;-87
2023/02/19 05:02:21;;;;;;;2.10;1.57;;;9.10;99.90;;;;;;4999831;28;20301;-88
2023/02/19 05:04:47;;;;;;;1.60;1.50;;;9.00;99.90;;;;;;4997729;28;20202;-88
2023/02/19 05:07:13;;;;;;;2.30;1.50;;;9.00;99.90;;;;;;5016185;28;20196;-87
2023/02/19 05:09:38;;;;;;;1.57;1.47;;;8.90;99.90;;;;;;5018685;28;20181;-87
2023/02/19 05:12:04;;;;;;;1.60;1.50;;;8.90;99.90;;;;;;5019266;28;20182;-86
2023/02/19 05:14:30;;;;;;;1.50;1.40;;;8.80;99.90;;;;;;5019352;28;20276;-87
2023/02/19 05:16:55;;;;;;;1.80;1.70;;;8.80;99.90;;;;;;4999772;28;20181;-86
2023/02/19 05:19:21;;;;;;;1.63;1.53;;;8.80;99.90;;;;;;5021579;28;20228;-85
2023/02/19 05:21:46;;;;;;;1.70;1.60;;;8.80;99.90;;;;;;5020480;28;20182;-86
2023/02/19 05:24:12;;;;;;;1.60;1.50;;;8.90;99.90;;;;;;5013667;28;20292;-87
2023/02/19 05:26:39;;;;;;;1.80;1.70;;;8.80;99.90;;;;;;5020256;28;20182;-87
2023/02/19 05:29:05;;;;;;;2.07;1.70;;;8.70;99.90;;;;;;5020235;28;20185;-87
2023/02/19 05:31:32;;;;;;;1.60;1.50;;;8.70;99.90;;;;;;5019059;28;20262;-87
2023/02/19 05:33:58;;;;;;;1.80;1.70;;;8.70;99.90;;;;;;5001863;28;20206;-87
2023/02/19 05:36:24;;;;;;;1.70;1.60;;;8.70;99.90;;;;;;5001033;28;20186;-87
2023/02/19 05:38:54;;;;;;;2.07;1.57;;;8.70;99.90;;;;;;5001743;28;20257;-87
2023/02/19 05:41:26;;;;;;;1.50;1.40;;;8.70;99.90;;;;;;5016226;28;20215;-87
2023/02/19 05:43:52;;;;;;;1.50;1.50;;;8.70;99.90;;;;;;5019013;28;20418;-87
2023/02/19 05:46:21;;;;;;;1.67;1.57;;;8.70;99.90;;;;;;5019229;28;20185;-87
2023/02/19 05:48:48;;;;;;;1.87;1.57;;;8.80;99.90;;;;;;5018802;28;20169;-87
2023/02/19 05:51:16;;;;;;;2.80;1.40;;;8.70;99.90;;;;;;5020570;28;20185;-88
2023/02/19 05:53:43;;;;;;;1.60;1.50;;;8.80;99.90;;;;;;5017492;28;20209;-87
2023/02/19 05:56:34;;;;;;;1.33;1.27;;;8.70;99.90;;;;;;5010913;28;20187;-88
2023/02/19 05:59:18;;;;;;;1.37;1.30;;;8.70;99.90;;;;;;5002141;28;20253;-87
2023/02/19 06:01:44;;;;;;;1.53;1.47;;;8.70;99.90;;;;;;4997629;28;20167;-88
2023/02/19 06:04:10;;;;;;;1.47;1.43;;;8.70;99.90;;;;;;4998338;28;20191;-86
2023/02/19 06:06:36;;;;;;;1.77;1.67;;;8.70;99.90;;;;;;5003883;28;20212;-87
2023/02/19 06:09:03;;;;;;;2.03;1.90;;;8.70;99.90;;;;;;5008597;28;20196;-88
2023/02/19 06:11:29;;;;;;;1.60;1.50;;;8.80;99.90;;;;;;5018419;28;20185;-87
2023/02/19 06:13:55;;;;;;;1.70;1.60;;;8.70;99.90;;;;;;5003463;28;20206;-86
2023/02/19 06:16:21;;;;;;;1.50;1.40;;;8.80;99.90;;;;;;4999417;28;20494;-86
2023/02/19 06:18:47;;;;;;;1.60;1.50;;;8.80;99.90;;;;;;5000920;28;20182;-86
2023/02/19 06:21:14;;;;;;;1.57;1.50;;;8.80;99.90;;;;;;4988952;28;20206;-87
2023/02/19 06:23:40;;;;;;;2.57;1.70;;;8.70;99.90;;;;;;5001879;28;20174;-87
2023/02/19 06:26:18;;;;;;;1.93;1.83;;;8.70;99.90;;;;;;5001239;28;20226;-87
2023/02/19 06:28:44;;;;;;;1.80;1.70;;;8.60;99.90;;;;;;5000897;28;20637;-87
2023/02/19 06:31:10;;;;;;;2.93;1.70;;;8.60;99.90;;;;;;5016277;28;20208;-85
2023/02/19 06:33:39;;;;;;;1.60;1.50;;;8.60;99.90;;;;;;5002917;28;20190;-86
2023/02/19 06:36:06;;;;;;;1.53;1.50;;;8.60;99.90;;;;;;5000595;28;20228;-86
2023/02/19 06:38:32;;;;;;;1.80;1.70;;;8.70;99.90;;;;;;5004085;28;20190;-88
2023/02/19 06:41:03;;;;;;;1.70;1.60;;;8.70;99.90;;;;;;5004800;28;20210;-87
2023/02/19 06:43:29;;;;;;;1.90;1.80;;;8.70;99.90;;;;;;5003906;28;20182;-87
2023/02/19 06:45:58;;;;;;;1.60;1.50;;;8.60;99.90;;;;;;5003750;28;20204;-87
2023/02/19 06:48:25;;;;;;;1.20;1.20;;;8.50;99.90;;;;;;5022470;28;20680;-87
2023/02/19 06:50:51;;;;;;;1.80;1.70;;;8.70;99.90;;;;;;5022392;28;20268;-87
2023/02/19 06:53:17;;;;;;;1.57;1.47;;;8.80;99.90;;;;;;5022842;28;20197;-89
2023/02/19 06:55:42;;;;;;;1.80;1.70;;;8.70;99.90;;;;;;5005128;28;20266;-87
2023/02/19 06:58:08;;;;;;;1.70;1.60;;;8.80;99.90;;;;;;5021195;28;20296;-87
2023/02/19 07:00:34;;;;;;;1.77;1.67;;;8.70;99.90;;;;;;5015172;28;20207;-87
2023/02/19 07:02:59;;;;;;;1.93;1.70;;;8.70;99.90;;;;;;5008331;28;20182;-87
2023/02/19 07:05:26;;;;;;;2.00;1.70;;;8.80;99.90;;;;;;5002503;28;20210;-87
2023/02/19 07:07:51;;;;;;;1.90;1.80;;;8.90;99.90;;;;;;5001289;28;20274;-89
2023/02/19 07:10:17;;;;;;;2.00;1.90;;;8.90;99.90;;;;;;5001572;28;20209;-85
2023/02/19 07:12:42;;;;;;;2.17;2.03;;;8.90;99.90;;;;;;5001636;28;20178;-87
2023/02/19 07:15:08;;;;;;;1.90;1.80;;;9.00;99.90;;;;;;5019201;28;20213;-86
2023/02/19 07:17:34;;;;;;;2.40;2.20;;;9.10;99.90;;;;;;5016270;28;20260;-89
2023/02/19 07:20:00;;;;;;;2.57;2.40;;;9.00;99.90;;;;;;5021735;28;20743;-86
2023/02/19 07:22:26;;;;;;;2.73;2.10;;;9.10;99.90;;;;;;5021790;28;20201;-88
2023/02/19 07:24:52;;;;;;;2.30;2.10;;;9.20;99.90;;;;;;5019663;28;20297;-87
2023/02/19 07:27:17;;;;;;;2.20;2.00;;;9.30;99.90;;;;;;5021277;28;20448;-87
2023/02/19 07:29:43;;;;;;;2.20;2.10;;;9.30;99.90;;;;;;5020618;28;20189;-87
2023/02/19 07:32:09;;;;;;;2.40;2.20;;;9.10;99.90;;;;;;5013378;28;20192;-87
2023/02/19 07:34:35;;;;;;;2.47;2.30;;;9.30;99.90;;;;;;5030207;28;20208;-87
2023/02/19 07:37:01;;;;;;;2.80;2.60;;;9.30;99.90;;;;;;5038586;28;20204;-88
2023/02/19 07:39:26;;;;;;;2.47;2.27;;;9.30;99.90;;;;;;5037951;28;20197;-90
2023/02/19 07:41:52;;;;;;;3.00;2.43;;;9.30;99.90;;;;;;4990545;28;20201;-87
2023/02/19 07:44:18;;;;;;;2.63;2.43;;;9.30;99.90;;;;;;5001488;28;20222;-87
2023/02/19 07:46:43;;;;;;;2.80;2.60;;;9.20;99.90;;;;;;5001971;28;20608;-89
2023/02/19 07:49:09;;;;;;;2.90;2.60;;;9.10;99.90;;;;;;5020642;28;20186;-87
2023/02/19 07:51:35;;;;;;;2.90;2.70;;;9.10;99.90;;;;;;5020492;28;20177;-89
2023/02/19 07:54:01;;;;;;;3.40;3.10;;;9.10;99.90;;;;;;5019854;28;20612;-87
2023/02/19 07:56:27;;;;;;;3.13;2.93;;;9.00;99.90;;;;;;5017788;28;20264;-88
2023/02/19 07:58:53;;;;;;;3.23;2.93;;;9.10;99.90;;;;;;5017537;28;20683;-87
2023/02/19 08:02:58;;;;;;;3.37;2.77;;;9.10;99.90;;;;;;5008745;28;20295;-88
2023/02/19 08:04:07;;;;;;;2.93;2.73;;;9.00;99.90;;;;;;5016630;28;20208;-87
2023/02/19 08:06:33;;;;;;;2.80;2.60;;;9.00;99.90;;;;;;5018382;28;20174;-89
2023/02/19 08:08:59;;;;;;;3.57;3.27;;;9.00;99.90;;;;;;5019597;28;20610;-87
2023/02/19 08:14:09;;;;;;;2.90;2.60;;;9.10;99.90;;;;;;5009441;28;20277;-87
2023/02/19 08:16:34;;;;;;;2.87;2.67;;;9.10;99.90;;;;;;4999443;28;20210;-87
2023/02/19 08:19:00;;;;;;;2.80;2.60;;;9.20;99.90;;;;;;5008920;28;20736;-87
2023/02/19 08:21:25;;;;;;;3.00;2.80;;;9.10;99.90;;;;;;5010679;28;20220;-87
2023/02/19 08:23:51;;;;;;;3.13;2.83;;;9.30;99.90;;;;;;5012947;28;20210;-87
2023/02/19 08:26:17;;;;;;;3.70;2.90;;;9.40;99.90;;;;;;4998115;28;20174;-87
2023/02/19 08:28:43;;;;;;;3.40;3.10;;;9.40;99.90;;;;;;4999131;28;20189;-87
2023/02/19 08:31:12;;;;;;;2.67;2.47;;;9.40;99.90;;;;;;5019385;28;20223;-85
2023/02/19 08:33:38;;;;;;;3.17;2.87;;;9.40;99.90;;;;;;5002518;28;20182;-87
2023/02/19 08:36:06;;;;;;;3.60;3.00;;;9.50;99.90;;;;;;5001660;28;20175;-88
2023/02/19 08:38:34;;;;;;;3.90;3.50;;;9.50;99.90;;;;;;5019912;28;20285;-88
2023/02/19 08:41:06;;;;;;;3.77;3.40;;;9.50;99.90;;;;;;5006938;28;20194;-88
2023/02/19 08:43:31;;;;;;;4.10;3.70;;;9.60;99.90;;;;;;5017426;28;20192;-87
2023/02/19 08:45:57;;;;;;;3.70;3.40;;;9.60;99.90;;;;;;4998702;28;20684;-88
2023/02/19 08:48:23;;;;;;;3.60;3.30;;;9.60;99.90;;;;;;4999964;28;20244;-88
2023/02/19 08:50:56;;;;;;;3.63;3.30;;;9.50;99.90;;;;;;4998327;28;20188;-87
2023/02/19 08:53:23;;;;;;;3.83;3.47;;;9.50;99.90;;;;;;5014346;28;20173;-88
2023/02/19 08:55:49;;;;;;;3.53;3.27;;;9.60;99.90;;;;;;5013693;28;20181;-90
2023/02/19 08:58:14;;;;;;;3.07;2.87;;;9.60;99.90;;;;;;5006212;28;20250;-90
2023/02/19 09:00:40;;;;;;;3.50;3.20;;;9.80;99.90;;;;;;5015538;28;20213;-87
2023/02/19 09:03:06;;;;;;;3.30;3.10;;;9.80;99.90;;;;;;5009742;28;20179;-87
2023/02/19 09:05:31;;;;;;;3.90;3.53;;;9.70;99.90;;;;;;5015141;28;20228;-90
2023/02/19 09:07:57;;;;;;;3.77;3.37;;;9.80;99.90;;;;;;5018550;28;20205;-88
2023/02/19 09:10:23;;;;;;;3.43;3.10;;;9.70;99.90;;;;;;5017690;28;20569;-89
2023/02/19 09:12:48;;;;;;;3.40;3.10;;;9.80;99.90;;;;;;5003331;28;20256;-87
2023/02/19 09:15:14;;;;;;;3.70;3.40;;;9.90;99.90;;;;;;5011748;28;20239;-89
2023/02/19 09:17:40;;;;;;;3.30;3.00;;;9.80;99.90;;;;;;5018628;28;20182;-87
2023/02/19 09:20:06;;;;;;;3.40;3.20;;;9.90;99.90;;;;;;4998069;28;20209;-88
2023/02/19 09:22:31;;;;;;;3.30;3.00;;;10.00;99.90;;;;;;5016886;28;20189;-88
2023/02/19 09:24:57;;;;;;;3.73;3.03;;;10.00;99.90;;;;;;5014321;28;20657;-88
2023/02/19 09:27:23;;;;;;;4.17;3.30;;;10.10;99.90;;;;;;5015718;28;20213;-88
2023/02/19 09:29:49;;;;;;;3.40;3.10;;;10.00;99.90;;;;;;5015192;28;20204;-89
2023/02/19 09:32:14;;;;;;;3.70;3.13;;;10.10;99.90;;;;;;5009100;28;20201;-88
2023/02/19 09:34:40;;;;;;;4.97;3.27;;;10.00;99.90;;;;;;4995773;28;20229;-87
2023/02/19 09:37:08;;;;;;;3.90;3.23;;;10.00;99.90;;;;;;4996749;28;20178;-88
2023/02/19 09:39:34;;;;;;;3.63;3.33;;;9.90;99.90;;;;;;4995761;28;20221;-86
2023/02/19 09:42:16;;;;;;;4.60;3.40;;;10.00;99.90;;;;;;4997892;28;20257;-89
2023/02/19 09:44:47;;;;;;;3.93;3.10;;;10.10;99.90;;;;;;4998280;28;20386;-88
2023/02/19 09:47:17;;;;;;;4.43;3.10;;;10.10;99.90;;;;;;5015836;28;20189;-88
2023/02/19 09:49:48;;;;;;;7.17;4.13;;;10.10;99.90;;;;;;5016408;28;20358;-88
2023/02/19 09:52:17;;;;;;;3.50;3.20;;;10.00;99.90;;;;;;5015078;28;20272;-88
2023/02/19 09:54:44;;;;;;;3.90;3.30;;;10.10;99.90;;;;;;4996694;28;20202;-88
2023/02/19 09:57:16;;;;;;;4.13;3.83;;;10.20;99.90;;;;;;4992786;28;20209;-87
2023/02/19 09:59:49;;;;;;;4.57;3.00;;;10.20;99.90;;;;;;4982000;28;20201;-88
2023/02/19 10:02:15;;;;;;;4.83;3.30;;;10.20;99.60;;;;;;5003584;28;20564;-88
2023/02/19 10:04:43;;;;;;;3.53;3.00;;;10.20;99.90;;;;;;4974913;28;20202;-88
2023/02/19 10:07:32;;;;;;;5.80;3.60;;;10.20;99.90;;;;;;4994210;28;20183;-83
2023/02/19 10:10:22;;;;;;;3.63;3.33;;;10.30;98.80;;;;;;4995371;28;20173;-88
2023/02/19 10:12:52;;;;;;;4.70;3.20;;;10.30;99.80;;;;;;4997207;28;20206;-83
2023/02/19 10:15:25;;;;;;;4.07;3.67;;;10.30;98.60;;;;;;4997855;28;20583;-87
2023/02/19 10:17:51;;;;;;;4.63;3.60;;;10.30;98.70;;;;;;4998821;28;20185;-87
2023/02/19 10:20:26;;;;;;;3.47;3.17;;;10.30;97.30;;;;;;4998206;28;20198;-86
2023/02/19 10:23:10;;;;;;;3.57;3.27;;;10.20;99.00;;;;;;4998837;28;20552;-87
2023/02/19 10:25:41;;;;;;;3.70;3.10;;;10.20;98.00;;;;;;4999028;28;20194;-88
2023/02/19 10:28:15;;;;;;;3.97;3.20;;;10.30;97.90;;;;;;4998587;28;20300;-88
2023/02/19 10:30:42;;;;;;;3.73;3.43;;;10.20;97.70;;;;;;4999959;28;20309;-88
2023/02/19 10:33:13;;;;;;;8.70;7.10;;;10.30;97.10;;;;;;5003941;28;20201;-87
2023/02/19 10:35:55;;;;;;;3.80;3.30;;;10.40;98.20;;;;;;4997488;28;20252;-87
2023/02/19 10:38:31;;;;;;;4.00;3.30;;;10.40;98.20;;;;;;4997651;28;20540;-88
2023/02/19 10:41:00;;;;;;;4.10;3.40;;;10.50;96.70;;;;;;5010020;28;20280;-87
2023/02/19 10:43:32;;;;;;;4.93;2.90;;;10.60;94.00;;;;;;5016878;28;20185;-88
2023/02/19 10:46:04;;;;;;;3.87;3.47;;;10.60;93.50;;;;;;5016412;28;20639;-87
2023/02/19 10:48:35;;;;;;;4.27;3.10;;;10.60;93.70;;;;;;5014684;28;20272;-87
2023/02/19 10:51:06;;;;;;;4.23;3.43;;;10.70;95.10;;;;;;5001258;28;20234;-87
2023/02/19 10:53:45;;;;;;;3.57;3.27;;;10.80;93.60;;;;;;4996426;28;20196;-88
2023/02/19 10:56:23;;;;;;;5.80;3.43;;;10.80;91.50;;;;;;4996734;28;20262;-88
2023/02/19 10:58:49;;;;;;;4.00;3.07;;;10.80;91.50;;;;;;5013528;28;20702;-88
2023/02/19 11:01:27;;;;;;;3.73;3.10;;;10.90;90.80;;;;;;5017839;28;20224;-87
2023/02/19 11:04:16;;;;;;;3.50;3.20;;;11.00;91.00;;;;;;5015806;28;20197;-88
2023/02/19 11:06:43;;;;;;;5.37;3.70;;;11.10;90.40;;;;;;5019974;28;20194;-86
2023/02/19 11:09:36;;;;;;;3.90;2.90;;;11.30;90.40;;;;;;5019348;28;20181;-88
2023/02/19 11:12:03;;;;;;;3.03;2.83;;;11.40;90.40;;;;;;5001190;28;20189;-86
2023/02/19 11:14:31;;;;;;;3.30;2.80;;;11.50;88.40;;;;;;5018949;28;20206;-87
2023/02/19 11:16:58;;;;;;;2.73;2.53;;;11.50;86.20;;;;;;5019028;28;20597;-87
2023/02/19 11:19:30;;;;;;;3.23;2.93;;;11.50;87.70;;;;;;5018687;28;20189;-87
2023/02/19 11:21:58;;;;;;;3.27;2.70;;;11.50;87.00;;;;;;4997751;28;20191;-87
2023/02/19 11:24:37;;;;;;;3.90;2.90;;;11.40;87.40;;;;;;5000272;28;20270;-90
2023/02/19 11:27:05;;;;;;;3.40;3.10;;;11.70;86.90;;;;;;5002331;28;20181;-86
2023/02/19 11:29:33;;;;;;;3.50;3.20;;;11.60;84.70;;;;;;5022988;28;20194;-88
2023/02/19 11:32:31;;;;;;;4.20;3.37;;;11.50;84.10;;;;;;5019331;28;20179;-88
2023/02/19 11:35:21;;;;;;;3.50;3.03;;;11.60;85.60;;;;;;5009035;28;20202;-88
2023/02/19 11:37:58;;;;;;;3.93;2.83;;;11.80;84.70;;;;;;5009879;28;20178;-87
2023/02/19 11:40:52;;;;;;;3.77;3.27;;;11.70;84.00;;;;;;4998639;28;20508;-86
2023/02/19 11:43:38;;;;;;;4.47;3.37;;;11.80;85.90;;;;;;5005685;28;20148;-88
2023/02/19 11:46:22;;;;;;;3.37;2.93;;;11.80;82.70;;;;;;4996053;28;20210;-88
2023/02/19 11:49:17;;;;;;;4.13;3.40;;;11.80;82.70;;;;;;5000059;28;20171;-87
2023/02/19 11:51:51;;;;;;;3.30;3.00;;;11.70;83.00;;;;;;4996488;28;20683;-87
2023/02/19 11:54:32;;;;;;;3.80;3.50;;;11.70;84.00;;;;;;5032337;28;20198;-88
2023/02/19 11:57:37;;;;;;;3.87;3.40;;;11.50;86.00;;;;;;5037620;28;20167;-87
2023/02/19 12:00:12;;;;;;;3.67;3.30;;;11.70;84.10;;;;;;5034939;28;20198;-86
2023/02/19 12:02:40;;;;;;;3.87;3.23;;;11.80;84.20;;;;;;5020279;28;20186;-88
2023/02/19 12:05:37;;;;;;;4.07;3.03;;;11.90;83.00;;;;;;5018193;28;20198;-88
2023/02/19 12:08:18;;;;;;;5.33;3.43;;;11.90;83.90;;;;;;4966674;28;20199;-87
2023/02/19 12:11:07;;;;;;;6.10;4.60;;;12.00;82.70;;;;;;5020366;28;20179;-87
2023/02/19 12:13:36;;;;;;;5.20;3.30;;;12.00;82.20;;;;;;5019794;28;20245;-88
2023/02/19 12:16:13;;;;;;;9.80;8.70;;;12.10;82.00;;;;;;5001207;28;20251;-87
2023/02/19 12:18:46;;;;;;;4.73;4.03;;;12.20;81.10;;;;;;5019156;28;20212;-87
2023/02/19 12:21:32;;;;;;;4.40;3.07;;;12.30;80.90;;;;;;5016148;28;20196;-87
2023/02/19 12:24:19;;;;;;;6.57;3.83;;;12.40;79.00;;;;;;5018659;28;20708;-88
2023/02/19 12:27:03;;;;;;;4.27;3.57;;;12.20;79.40;;;;;;5019980;28;20184;-87
2023/02/19 12:29:50;;;;;;;4.83;3.40;;;12.30;81.30;;;;;;5019486;28;20168;-88
2023/02/19 12:32:55;;;;;;;5.50;3.90;;;12.20;81.10;;;;;;5007669;28;20178;-87
2023/02/19 12:35:44;;;;;;;4.00;3.60;;;12.00;82.60;;;;;;5003260;28;20200;-86
2023/02/19 12:38:34;;;;;;;3.77;3.30;;;12.20;79.50;;;;;;4998707;28;20542;-87
2023/02/19 12:41:20;;;;;;;4.80;3.13;;;12.30;79.90;;;;;;5009620;28;20222;-88
2023/02/19 12:43:54;;;;;;;6.73;3.50;;;12.60;76.60;;;;;;5010477;28;20776;-88
2023/02/19 12:46:28;;;;;;;3.97;3.20;;;12.60;76.50;;;;;;5016760;28;20172;-88
2023/02/19 12:49:14;;;;;;;4.70;3.20;;;12.40;76.30;;;;;;5017199;28;20202;-86
2023/02/19 12:51:48;;;;;;;4.07;2.90;;;12.40;76.50;;;;;;4999591;28;20193;-88
2023/02/19 12:54:22;;;;;;;6.17;3.10;;;12.40;75.80;;;;;;4998517;28;20822;-88
2023/02/19 12:56:59;;;;;;;5.13;3.10;;;12.30;74.80;;;;;;4999951;28;20187;-86
2023/02/19 12:59:45;;;;;;;4.67;3.67;;;12.40;75.40;;;;;;4995857;28;20203;-87
2023/02/19 13:02:21;;;;;;;4.97;2.90;;;12.50;74.70;;;;;;4997118;28;20195;-88
2023/02/19 13:05:33;;;;;;;3.33;3.03;;;12.40;74.80;;;;;;4997613;28;20310;-87
2023/02/19 13:08:06;;;;;;;3.53;3.23;;;12.40;73.20;;;;;;5002963;28;20176;-89
2023/02/19 13:10:45;;;;;;;4.77;3.10;;;12.50;72.80;;;;;;5016238;28;20203;-88
2023/02/19 13:13:24;;;;;;;4.30;2.90;;;12.50;73.60;;;;;;5015797;28;20180;-89
2023/02/19 13:15:54;;;;;;;3.23;2.57;;;12.50;73.20;;;;;;5016099;28;20291;-88
2023/02/19 13:18:26;;;;;;;3.53;2.80;;;12.50;73.90;;;;;;5016682;28;20186;-88
2023/02/19 13:20:55;;;;;;;5.33;3.63;;;12.30;73.70;;;;;;5010188;28;20203;-87
2023/02/19 13:26:39;;;;;;;4.47;3.07;;;12.30;75.50;;;;;;5006847;28;20329;-85
2023/02/19 13:29:23;;;;;;;4.50;3.30;;;12.30;75.10;;;;;;5011205;28;20279;-89
2023/02/19 13:32:04;;;;;;;3.90;3.10;;;12.20;75.90;;;;;;4985482;28;20189;-88
2023/02/19 13:34:42;;;;;;;3.40;3.10;;;12.10;76.00;;;;;;5005248;28;20216;-88
2023/02/19 13:37:10;;;;;;;4.60;3.33;;;12.00;76.30;;;;;;5007536;28;20195;-87
2023/02/19 13:39:36;;;;;;;4.20;3.83;;;12.00;77.10;;;;;;4990234;28;20205;-88
2023/02/19 13:42:02;;;;;;;6.03;3.47;;;12.00;78.10;;;;;;5009296;28;20181;-89
2023/02/19 13:44:33;;;;;;;4.80;4.00;;;12.00;78.30;;;;;;5003543;28;20218;-88